Main page
METAR-TAF:

METAR-TAF

Airports :

Kassel Airport

Kassel, Germany

latitude: 51-24N, longitude: 009-23E, elevation: 277 m

Current weather observation

The report was made 5 hours and 58 minutes ago, at 19:50 UTC
Wind 5 kt from the East/Northeast
Temperature -4°C
Humidity 74%
Pressure 1015 hPa
Visibility 10 km or more
no clouds below 1500 m and no cumulonimbus

METAR: EDVK 191950Z 07005KT CAVOK M04/M08 Q1015

Time: 02:48 (01:48 UTC)

Forecast

The report was made 5 hours and 48 minutes ago, at 20:00 UTC
Forecast valid from 19 at 21 UTC to 20 at 03 UTC
Wind 4 kt from the East
Visibility 10 km or more
no clouds below 1500 m and no cumulonimbus

TAF: EDVK 192000Z 1921/2003 10004KT CAVOK

Weather observations and forecasts of more than 4000 airports (METAR and TAF reports).

The available stations are represented by yellow and red dots on the map.

Hover mouse over dot to see the name of the station.

Then click to see weather observations and forecasts.

To change the map : click on the green buttons with a black cross to zoom in, on the green button with a dash to zoom out, or on the green arrows for adjacent maps.


METAR-TAF: